Time,TemperatureF,DewpointF,PressureIn,WindDirection,WindDirectionDegrees,WindSpeedMPH,WindSpeedGustMPH,Humidity,HourlyPrecipIn,Conditions,Clouds,dailyrainin,SoftwareType,DateUTC
2013-07-21 00:00:00,74.0,68.0,-100.00,North,353,0.0,2.0,82,0.00,,,0.00,,2013-07-21 04:00:00,
2013-07-21 00:01:00,75.0,68.0,-100.00,NNW,344,1.0,4.0,81,0.00,,,0.00,,2013-07-21 04:01:00,
2013-07-21 00:11:00,75.0,68.0,-100.00,NNW,344,1.0,4.0,81,0.00,,,0.00,,2013-07-21 04:11:00,
2013-07-21 00:32:00,74.0,69.0,-100.00,NNW,335,3.0,5.0,84,0.00,,,0.00,,2013-07-21 04:32:00,
2013-07-21 00:43:00,74.0,69.0,-100.00,NNW,335,3.0,5.0,84,0.00,,,0.00,,2013-07-21 04:43:00,
2013-07-21 00:53:00,73.0,69.0,-100.00,NNW,332,2.0,6.0,85,0.00,,,0.00,,2013-07-21 04:53:00,
2013-07-21 01:02:00,74.0,68.0,-100.00,NW,319,3.0,6.0,83,0.00,,,0.00,,2013-07-21 05:02:00,
2013-07-21 01:11:00,74.0,68.0,-100.00,NW,319,3.0,6.0,83,0.00,,,0.00,,2013-07-21 05:11:00,
2013-07-21 01:32:00,73.0,68.0,-100.00,NW,323,2.0,4.0,85,0.00,,,0.00,,2013-07-21 05:32:00,
2013-07-21 01:42:00,73.0,68.0,-100.00,NW,323,2.0,4.0,85,0.00,,,0.00,,2013-07-21 05:42:00,
2013-07-21 01:52:00,73.0,68.0,-100.00,NW,326,2.0,4.0,86,0.00,,,0.00,,2013-07-21 05:52:00,
2013-07-21 02:01:00,72.0,68.0,-100.00,NW,326,2.0,5.0,87,0.00,,,0.00,,2013-07-21 06:01:00,
2013-07-21 02:11:00,72.0,68.0,-100.00,NW,326,2.0,5.0,87,0.00,,,0.00,,2013-07-21 06:11:00,
2013-07-21 02:32:00,72.0,68.0,-100.00,NNW,328,1.0,2.0,87,0.00,,,0.00,,2013-07-21 06:32:00,
2013-07-21 02:43:00,72.0,68.0,-100.00,NNW,328,1.0,2.0,87,0.00,,,0.00,,2013-07-21 06:43:00,
2013-07-21 02:53:00,72.0,67.0,-100.00,NNW,335,1.0,2.0,85,0.00,,,0.00,,2013-07-21 06:53:00,
2013-07-21 03:01:00,72.0,67.0,-100.00,NNW,335,1.0,2.0,85,0.00,,,0.00,,2013-07-21 07:01:00,
2013-07-21 03:11:00,72.0,68.0,-100.00,NW,323,2.0,4.0,86,0.00,,,0.00,,2013-07-21 07:11:00,
2013-07-21 03:43:00,71.0,67.0,-100.00,NW,316,2.0,4.0,87,0.00,,,0.00,,2013-07-21 07:43:00,
2013-07-21 03:53:00,71.0,67.0,-100.00,NW,318,3.0,6.0,89,0.00,,,0.00,,2013-07-21 07:53:00,
2013-07-21 04:02:00,71.0,67.0,-100.00,NW,322,3.0,7.0,87,0.00,,,0.00,,2013-07-21 08:02:00,
2013-07-21 04:11:00,71.0,67.0,-100.00,NW,322,3.0,7.0,87,0.00,,,0.00,,2013-07-21 08:11:00,
2013-07-21 04:22:00,71.0,67.0,-100.00,NW,320,3.0,5.0,88,0.00,,,0.00,,2013-07-21 08:22:00,
2013-07-21 04:33:00,70.0,67.0,-100.00,NW,320,3.0,6.0,89,0.00,,,0.00,,2013-07-21 08:33:00,
2013-07-21 04:43:00,70.0,67.0,-100.00,NW,320,3.0,6.0,89,0.00,,,0.00,,2013-07-21 08:43:00,
2013-07-21 04:52:00,71.0,67.0,-100.00,NW,320,2.0,6.0,88,0.00,,,0.00,,2013-07-21 08:52:00,
2013-07-21 05:02:00,71.0,67.0,-100.00,NNW,329,2.0,6.0,86,0.00,,,0.00,,2013-07-21 09:02:00,
2013-07-21 05:12:00,71.0,67.0,-100.00,NNW,329,2.0,6.0,86,0.00,,,0.00,,2013-07-21 09:12:00,
2013-07-21 05:32:00,71.0,67.0,-100.00,NNW,329,3.0,6.0,87,0.00,,,0.00,,2013-07-21 09:32:00,
2013-07-21 05:42:00,71.0,67.0,-100.00,NNW,329,3.0,6.0,87,0.00,,,0.00,,2013-07-21 09:42:00,
2013-07-21 05:52:00,70.0,67.0,-100.00,NW,322,4.0,8.0,89,0.00,,,0.00,,2013-07-21 09:52:00,
2013-07-21 06:02:00,69.0,67.0,-100.00,NNW,328,3.0,7.0,90,0.00,,,0.00,,2013-07-21 10:02:00,
2013-07-21 06:11:00,69.0,67.0,-100.00,NNW,328,3.0,7.0,90,0.00,,,0.00,,2013-07-21 10:11:00,
2013-07-21 06:32:00,69.0,66.0,-100.00,NNW,328,2.0,5.0,91,0.00,,,0.00,,2013-07-21 10:32:00,
2013-07-21 06:43:00,69.0,66.0,-100.00,NNW,328,2.0,5.0,91,0.00,,,0.00,,2013-07-21 10:43:00,
2013-07-21 06:52:00,69.0,66.0,-100.00,NW,325,3.0,6.0,90,0.00,,,0.00,,2013-07-21 10:52:00,
2013-07-21 07:02:00,70.0,67.0,-100.00,NNW,335,2.0,6.0,89,0.00,,,0.00,,2013-07-21 11:02:00,
2013-07-21 07:12:00,70.0,67.0,-100.00,NNW,335,2.0,6.0,89,0.00,,,0.00,,2013-07-21 11:12:00,
2013-07-21 07:33:00,70.0,66.0,-100.00,NW,326,2.0,6.0,88,0.00,,,0.00,,2013-07-21 11:33:00,
2013-07-21 07:43:00,70.0,66.0,-100.00,NW,326,2.0,6.0,88,0.00,,,0.00,,2013-07-21 11:43:00,
2013-07-21 07:52:00,70.0,67.0,-100.00,NNW,330,2.0,5.0,90,0.00,,,0.00,,2013-07-21 11:52:00,
2013-07-21 08:01:00,70.0,66.0,-100.00,NNW,332,1.0,5.0,88,0.00,,,0.00,,2013-07-21 12:01:00,
2013-07-21 08:11:00,70.0,66.0,-100.00,NNW,332,1.0,5.0,88,0.00,,,0.00,,2013-07-21 12:11:00,
2013-07-21 08:32:00,72.0,67.0,-100.00,NW,326,1.0,4.0,85,0.00,,,0.00,,2013-07-21 12:32:00,
2013-07-21 08:43:00,72.0,67.0,-100.00,NW,326,1.0,4.0,85,0.00,,,0.00,,2013-07-21 12:43:00,
2013-07-21 08:53:00,73.0,67.0,-100.00,NNW,329,1.0,3.0,84,0.00,,,0.00,,2013-07-21 12:53:00,
2013-07-21 09:02:00,74.0,67.0,-100.00,NNW,335,1.0,3.0,77,0.00,,,0.00,,2013-07-21 13:02:00,
2013-07-21 09:12:00,74.0,67.0,-100.00,NNW,335,1.0,3.0,77,0.00,,,0.00,,2013-07-21 13:12:00,
2013-07-21 09:33:00,78.0,69.0,-100.00,North,356,0.0,2.0,72,0.00,,,0.00,,2013-07-21 13:33:00,
2013-07-21 09:43:00,78.0,69.0,-100.00,North,356,0.0,2.0,72,0.00,,,0.00,,2013-07-21 13:43:00,
2013-07-21 09:53:00,77.0,69.0,-100.00,NNW,328,1.0,5.0,75,0.00,,,0.00,,2013-07-21 13:53:00,
2013-07-21 10:01:00,77.0,68.0,-100.00,NW,326,2.0,6.0,75,0.00,,,0.00,,2013-07-21 14:01:00,
2013-07-21 10:12:00,77.0,68.0,-100.00,NW,326,2.0,6.0,75,0.00,,,0.00,,2013-07-21 14:12:00,
2013-07-21 10:32:00,80.0,68.0,-100.00,NNW,332,2.0,5.0,68,0.00,,,0.00,,2013-07-21 14:32:00,
2013-07-21 10:43:00,80.0,68.0,-100.00,NNW,332,2.0,5.0,68,0.00,,,0.00,,2013-07-21 14:43:00,
2013-07-21 10:53:00,79.0,67.0,-100.00,NNW,328,3.0,9.0,69,0.00,,,0.00,,2013-07-21 14:53:00,
2013-07-21 11:02:00,78.0,66.0,-100.00,NW,316,3.0,6.0,66,0.00,,,0.00,,2013-07-21 15:02:00,
2013-07-21 11:11:00,78.0,66.0,-100.00,NW,316,3.0,6.0,66,0.00,,,0.00,,2013-07-21 15:11:00,
2013-07-21 11:32:00,82.0,69.0,-100.00,NNW,332,2.0,5.0,65,0.00,,,0.00,,2013-07-21 15:32:00,
2013-07-21 11:43:00,82.0,69.0,-100.00,NNW,332,2.0,5.0,65,0.00,,,0.00,,2013-07-21 15:43:00,
2013-07-21 11:53:00,83.0,68.0,-100.00,NW,325,2.0,6.0,62,0.00,,,0.00,,2013-07-21 15:53:00,
2013-07-21 12:01:00,81.0,67.0,-100.00,NNW,336,3.0,8.0,62,0.00,,,0.00,,2013-07-21 16:01:00,
2013-07-21 12:11:00,81.0,67.0,-100.00,NNW,336,3.0,8.0,62,0.00,,,0.00,,2013-07-21 16:11:00,
2013-07-21 12:22:00,81.0,66.0,-100.00,NNW,329,3.0,8.0,59,0.00,,,0.00,,2013-07-21 16:22:00,
2013-07-21 12:32:00,82.0,66.0,-100.00,NW,306,5.0,11.0,59,0.00,,,0.00,,2013-07-21 16:32:00,
2013-07-21 12:43:00,82.0,66.0,-100.00,NW,306,5.0,11.0,59,0.00,,,0.00,,2013-07-21 16:43:00,
2013-07-21 12:52:00,84.0,66.0,-100.00,NW,315,2.0,6.0,56,0.00,,,0.00,,2013-07-21 16:52:00,
2013-07-21 13:02:00,85.0,66.0,-100.00,NNW,346,3.0,7.0,53,0.00,,,0.00,,2013-07-21 17:02:00,
2013-07-21 13:11:00,85.0,66.0,-100.00,NNW,346,3.0,7.0,53,0.00,,,0.00,,2013-07-21 17:11:00,
2013-07-21 13:22:00,85.0,66.0,-100.00,NNW,346,3.0,7.0,53,0.00,,,0.00,,2013-07-21 17:22:00,
2013-07-21 13:33:00,84.0,67.0,-100.00,WNW,302,4.0,7.0,57,0.00,,,0.00,,2013-07-21 17:33:00,
2013-07-21 13:43:00,84.0,67.0,-100.00,WNW,302,4.0,7.0,57,0.00,,,0.00,,2013-07-21 17:43:00,
2013-07-21 13:53:00,85.0,67.0,-100.00,NNW,337,3.0,7.0,56,0.00,,,0.00,,2013-07-21 17:53:00,
2013-07-21 14:01:00,86.0,67.0,-100.00,SSW,193,3.0,7.0,53,0.00,,,0.00,,2013-07-21 18:01:00,
2013-07-21 14:11:00,86.0,67.0,-100.00,SSW,193,3.0,7.0,53,0.00,,,0.00,,2013-07-21 18:11:00,
2013-07-21 14:32:00,85.0,67.0,-100.00,SSE,154,2.0,3.0,56,0.00,,,0.00,,2013-07-21 18:32:00,
2013-07-21 14:43:00,85.0,67.0,-100.00,SSE,154,2.0,3.0,56,0.00,,,0.00,,2013-07-21 18:43:00,
2013-07-21 14:52:00,83.0,72.0,-100.00,NNE,24,0.0,3.0,70,0.00,,,0.00,,2013-07-21 18:52:00,
2013-07-21 15:01:00,80.0,72.0,-100.00,NE,42,0.0,0.0,77,0.00,,,0.00,,2013-07-21 19:01:00,
2013-07-21 15:11:00,80.0,72.0,-100.00,NE,42,0.0,0.0,77,0.00,,,0.00,,2013-07-21 19:11:00,
2013-07-21 15:32:00,77.0,68.0,-100.00,ESE,116,3.0,8.0,72,0.00,,,0.00,,2013-07-21 19:32:00,
2013-07-21 15:42:00,77.0,68.0,-100.00,ESE,116,3.0,8.0,72,0.00,,,0.00,,2013-07-21 19:42:00,
2013-07-21 15:52:00,74.0,68.0,-100.00,East,89,1.0,4.0,79,0.07,,,0.02,,2013-07-21 19:52:00,
2013-07-21 16:02:00,74.0,68.0,-100.00,East,89,1.0,4.0,79,0.07,,,0.02,,2013-07-21 20:02:00,
2013-07-21 16:12:00,73.0,70.0,-100.00,NNW,346,3.0,9.0,92,0.26,,,0.06,,2013-07-21 20:12:00,
2013-07-21 16:32:00,71.0,70.0,-100.00,North,353,1.0,4.0,94,0.18,,,0.13,,2013-07-21 20:32:00,
2013-07-21 16:43:00,71.0,69.0,-100.00,NNW,330,2.0,5.0,94,0.18,,,0.18,,2013-07-21 20:43:00,
2013-07-21 16:52:00,71.0,70.0,-100.00,NNW,328,2.0,4.0,95,0.11,,,0.22,,2013-07-21 20:52:00,
2013-07-21 17:01:00,72.0,70.0,-100.00,NNW,328,2.0,4.0,95,0.04,,,0.26,,2013-07-21 21:01:00,
2013-07-21 17:11:00,72.0,70.0,-100.00,NNW,328,2.0,4.0,95,0.04,,,0.26,,2013-07-21 21:11:00,
2013-07-21 17:32:00,73.0,70.0,-100.00,NW,325,3.0,5.0,90,0.00,,,0.26,,2013-07-21 21:32:00,
2013-07-21 17:43:00,73.0,70.0,-100.00,NW,325,3.0,5.0,90,0.00,,,0.26,,2013-07-21 21:43:00,
2013-07-21 17:52:00,74.0,72.0,-100.00,NW,315,6.0,9.0,93,0.00,,,0.26,,2013-07-21 21:52:00,
2013-07-21 18:01:00,74.0,71.0,-100.00,NW,305,5.0,7.0,90,0.00,,,0.26,,2013-07-21 22:01:00,
2013-07-21 18:11:00,74.0,71.0,-100.00,NW,305,5.0,7.0,90,0.00,,,0.26,,2013-07-21 22:11:00,
2013-07-21 18:32:00,76.0,72.0,-100.00,NW,322,3.0,6.0,88,0.00,,,0.26,,2013-07-21 22:32:00,
2013-07-21 18:43:00,76.0,72.0,-100.00,NW,322,3.0,6.0,88,0.00,,,0.26,,2013-07-21 22:43:00,
2013-07-21 18:52:00,78.0,72.0,-100.00,NW,320,3.0,6.0,83,0.00,,,0.26,,2013-07-21 22:52:00,
2013-07-21 19:02:00,78.0,72.0,-100.00,NNW,330,2.0,5.0,82,0.00,,,0.26,,2013-07-21 23:02:00,
2013-07-21 19:11:00,78.0,72.0,-100.00,NNW,330,2.0,5.0,82,0.00,,,0.26,,2013-07-21 23:11:00,
2013-07-21 19:32:00,75.0,71.0,-100.00,NW,322,3.0,7.0,88,0.00,,,0.26,,2013-07-21 23:32:00,
2013-07-21 19:43:00,75.0,71.0,-100.00,NW,322,3.0,7.0,88,0.00,,,0.26,,2013-07-21 23:43:00,
2013-07-21 19:53:00,74.0,71.0,-100.00,NW,325,3.0,5.0,90,0.00,,,0.26,,2013-07-21 23:53:00,
2013-07-21 20:01:00,73.0,70.0,-100.00,NW,323,0.0,2.0,90,0.00,,,0.26,,2013-07-22 00:01:00,
2013-07-21 20:11:00,73.0,70.0,-100.00,NW,323,0.0,2.0,90,0.00,,,0.26,,2013-07-22 00:11:00,
2013-07-21 20:32:00,73.0,71.0,-100.00,NNW,336,1.0,3.0,93,0.00,,,0.26,,2013-07-22 00:32:00,
2013-07-21 20:42:00,73.0,71.0,-100.00,NNW,336,1.0,3.0,93,0.00,,,0.26,,2013-07-22 00:42:00,
2013-07-21 20:53:00,71.0,69.0,-100.00,North,353,0.0,2.0,93,0.00,,,0.26,,2013-07-22 00:53:00,
2013-07-21 21:02:00,71.0,69.0,-100.00,NE,34,0.0,0.0,94,0.00,,,0.26,,2013-07-22 01:02:00,
2013-07-21 21:12:00,71.0,69.0,-100.00,NE,34,0.0,0.0,94,0.00,,,0.26,,2013-07-22 01:12:00,
2013-07-21 21:32:00,71.0,70.0,-100.00,ESE,119,1.0,4.0,95,0.00,,,0.26,,2013-07-22 01:32:00,
2013-07-21 21:42:00,71.0,70.0,-100.00,ESE,119,1.0,4.0,95,0.00,,,0.26,,2013-07-22 01:42:00,
2013-07-21 21:52:00,71.0,70.0,-100.00,ESE,119,1.0,3.0,95,0.00,,,0.26,,2013-07-22 01:52:00,
2013-07-21 22:02:00,71.0,70.0,-100.00,SE,136,2.0,4.0,95,0.00,,,0.26,,2013-07-22 02:02:00,
2013-07-21 22:11:00,71.0,70.0,-100.00,SE,136,2.0,4.0,95,0.00,,,0.26,,2013-07-22 02:11:00,
2013-07-21 22:32:00,71.0,70.0,-100.00,SE,138,4.0,6.0,96,0.00,,,0.26,,2013-07-22 02:32:00,
2013-07-21 22:43:00,71.0,70.0,-100.00,SE,138,4.0,6.0,96,0.00,,,0.26,,2013-07-22 02:43:00,
2013-07-21 22:52:00,71.0,70.0,-100.00,SE,137,4.0,8.0,96,0.00,,,0.26,,2013-07-22 02:52:00,
2013-07-21 23:01:00,71.0,70.0,-100.00,SE,137,4.0,8.0,96,0.00,,,0.26,,2013-07-22 03:01:00,
2013-07-21 23:12:00,71.0,70.0,-100.00,SE,134,6.0,8.0,96,0.00,,,0.26,,2013-07-22 03:12:00,
2013-07-21 23:43:00,71.0,69.0,-100.00,SE,140,6.0,8.0,96,0.00,,,0.26,,2013-07-22 03:43:00,
2013-07-21 23:53:00,71.0,69.0,-100.00,SE,136,6.0,8.0,96,0.00,,,0.26,,2013-07-22 03:53:00,